map of KAKH home
Great Circle Mapper logo
KAKH - Airport
Location
City:  Gastonia, North Carolina, United States
Name:Gastonia Municipal Airport
ICAO:KAKH
FAA:AKH

Details
Type:Airport (Airfield)
Use:Public/Civil
Latitude:3512'10"N (35.202639)
Longitude:8109'00"W (-81.149888)
Datum:WGS 1984
Elevation:798 ft (243 m)
Variation:7.4W (WMM2010 magnetic declination)
Runways:1
Longest:3770 × 100 ft (1149 × 30.5 m), paved

Time
Time Zone:UTC-5 (DST-4)
Local Time:

Weather
METAR:KAKH 222354Z AUTO 00000KT 10SM CLR 06/M04 A3034 RMK AO2 SLP283 T00561039 10133 20056 55011

Related Locations
Nearby:
Farthest:MGV: 11514 mi / 18530 km
Margaret River, WA, AU

Find:

   beyond  
but within

Other Information
Maps:
NOTAMs:
Links:
Sources:

  
flag of United States
flag of North Carolina
  

Sectional Chart

Flight Planning
at skyvector.com

Satellite Image

Google Maps Satellite View

 

Copyright © 2004-2014 Karl L. Swartz. All rights reserved.
The Great Circle Mapper name and logo are trademarks of the Great Circle Mapper.
All other trademarks mentioned herein belong to their respective owners.
Please see credits for attibutions and further copyright information.

  Follow gcmap on Facebook Follow gcmap on Twitter

hCard Microformat

Geo Microformat